sensor_id;sensor_type;location;lat;lon;timestamp;P1;durP1;ratioP1;P2;durP2;ratioP2
82990;SDS011;72806;50.832;4.864;2024-01-15T00:02:23;31.80;;;12.55;;
82990;SDS011;72806;50.832;4.864;2024-01-15T00:04:51;31.80;;;13.35;;
82990;SDS011;72806;50.832;4.864;2024-01-15T00:07:18;25.15;;;11.77;;
82990;SDS011;72806;50.832;4.864;2024-01-15T00:09:45;31.55;;;12.85;;
82990;SDS011;72806;50.832;4.864;2024-01-15T00:12:12;30.83;;;12.65;;
82990;SDS011;72806;50.832;4.864;2024-01-15T00:14:38;26.52;;;11.77;;
82990;SDS011;72806;50.832;4.864;2024-01-15T00:17:05;31.70;;;13.15;;
82990;SDS011;72806;50.832;4.864;2024-01-15T00:19:32;32.30;;;12.05;;
82990;SDS011;72806;50.832;4.864;2024-01-15T00:22:01;36.00;;;14.95;;
82990;SDS011;72806;50.832;4.864;2024-01-15T00:24:28;30.88;;;14.25;;
82990;SDS011;72806;50.832;4.864;2024-01-15T00:26:54;35.97;;;14.05;;
82990;SDS011;72806;50.832;4.864;2024-01-15T00:29:21;32.08;;;14.10;;
82990;SDS011;72806;50.832;4.864;2024-01-15T00:31:48;30.25;;;14.20;;
82990;SDS011;72806;50.832;4.864;2024-01-15T00:34:15;33.30;;;13.02;;
82990;SDS011;72806;50.832;4.864;2024-01-15T00:36:42;30.92;;;13.27;;
82990;SDS011;72806;50.832;4.864;2024-01-15T00:39:10;26.88;;;12.40;;
82990;SDS011;72806;50.832;4.864;2024-01-15T00:41:37;30.52;;;11.77;;
82990;SDS011;72806;50.832;4.864;2024-01-15T00:44:04;29.83;;;13.48;;
82990;SDS011;72806;50.832;4.864;2024-01-15T00:46:32;25.13;;;10.55;;
82990;SDS011;72806;50.832;4.864;2024-01-15T00:48:59;25.95;;;11.82;;
82990;SDS011;72806;50.832;4.864;2024-01-15T00:51:26;25.10;;;9.77;;
82990;SDS011;72806;50.832;4.864;2024-01-15T00:53:52;30.08;;;12.98;;
82990;SDS011;72806;50.832;4.864;2024-01-15T00:56:21;25.95;;;12.77;;
82990;SDS011;72806;50.832;4.864;2024-01-15T00:58:48;30.85;;;12.88;;
82990;SDS011;72806;50.832;4.864;2024-01-15T01:01:14;28.70;;;12.65;;
82990;SDS011;72806;50.832;4.864;2024-01-15T01:03:41;26.90;;;11.85;;
82990;SDS011;72806;50.832;4.864;2024-01-15T01:06:08;23.95;;;12.43;;
82990;SDS011;72806;50.832;4.864;2024-01-15T01:08:35;24.55;;;11.73;;
82990;SDS011;72806;50.832;4.864;2024-01-15T01:11:02;29.50;;;12.15;;
82990;SDS011;72806;50.832;4.864;2024-01-15T01:13:30;21.67;;;11.18;;
82990;SDS011;72806;50.832;4.864;2024-01-15T01:15:58;27.23;;;13.10;;
82990;SDS011;72806;50.832;4.864;2024-01-15T01:18:25;25.55;;;11.65;;
82990;SDS011;72806;50.832;4.864;2024-01-15T01:20:52;25.70;;;11.65;;
82990;SDS011;72806;50.832;4.864;2024-01-15T01:23:19;26.05;;;11.77;;
82990;SDS011;72806;50.832;4.864;2024-01-15T01:25:45;28.45;;;12.05;;
82990;SDS011;72806;50.832;4.864;2024-01-15T01:28:12;23.85;;;11.18;;
82990;SDS011;72806;50.832;4.864;2024-01-15T01:30:41;22.20;;;10.85;;
82990;SDS011;72806;50.832;4.864;2024-01-15T01:33:08;25.15;;;11.43;;
82990;SDS011;72806;50.832;4.864;2024-01-15T01:35:35;20.45;;;10.07;;
82990;SDS011;72806;50.832;4.864;2024-01-15T01:38:02;23.33;;;10.52;;
82990;SDS011;72806;50.832;4.864;2024-01-15T01:40:29;23.55;;;10.10;;
82990;SDS011;72806;50.832;4.864;2024-01-15T01:42:56;26.38;;;10.27;;
82990;SDS011;72806;50.832;4.864;2024-01-15T01:45:23;21.17;;;9.80;;
82990;SDS011;72806;50.832;4.864;2024-01-15T01:47:51;24.95;;;10.10;;
82990;SDS011;72806;50.832;4.864;2024-01-15T01:50:18;19.48;;;8.63;;
82990;SDS011;72806;50.832;4.864;2024-01-15T01:52:45;15.00;;;7.47;;
82990;SDS011;72806;50.832;4.864;2024-01-15T01:55:12;23.50;;;9.85;;
82990;SDS011;72806;50.832;4.864;2024-01-15T01:57:40;22.20;;;8.80;;
82990;SDS011;72806;50.832;4.864;2024-01-15T02:00:09;27.30;;;10.40;;
82990;SDS011;72806;50.832;4.864;2024-01-15T02:02:37;16.67;;;9.52;;
82990;SDS011;72806;50.832;4.864;2024-01-15T02:05:05;23.02;;;9.60;;
82990;SDS011;72806;50.832;4.864;2024-01-15T02:07:34;22.48;;;8.93;;
82990;SDS011;72806;50.832;4.864;2024-01-15T02:10:01;13.65;;;7.78;;
82990;SDS011;72806;50.832;4.864;2024-01-15T02:12:29;25.50;;;9.55;;
82990;SDS011;72806;50.832;4.864;2024-01-15T02:14:56;15.27;;;7.95;;
82990;SDS011;72806;50.832;4.864;2024-01-15T02:17:23;20.90;;;8.48;;
82990;SDS011;72806;50.832;4.864;2024-01-15T02:19:49;15.00;;;8.10;;
82990;SDS011;72806;50.832;4.864;2024-01-15T02:22:18;15.82;;;8.23;;
82990;SDS011;72806;50.832;4.864;2024-01-15T02:24:46;15.68;;;7.75;;
82990;SDS011;72806;50.832;4.864;2024-01-15T02:27:13;17.60;;;7.70;;
82990;SDS011;72806;50.832;4.864;2024-01-15T02:29:40;14.23;;;7.13;;
82990;SDS011;72806;50.832;4.864;2024-01-15T02:32:08;16.05;;;8.20;;
82990;SDS011;72806;50.832;4.864;2024-01-15T02:34:35;14.55;;;7.95;;
82990;SDS011;72806;50.832;4.864;2024-01-15T02:37:02;15.70;;;7.20;;
82990;SDS011;72806;50.832;4.864;2024-01-15T02:39:29;13.65;;;7.70;;
82990;SDS011;72806;50.832;4.864;2024-01-15T02:41:58;16.80;;;7.15;;
82990;SDS011;72806;50.832;4.864;2024-01-15T02:44:25;16.35;;;7.55;;
82990;SDS011;72806;50.832;4.864;2024-01-15T02:46:51;15.20;;;7.43;;
82990;SDS011;72806;50.832;4.864;2024-01-15T02:49:18;14.32;;;8.18;;
82990;SDS011;72806;50.832;4.864;2024-01-15T02:51:45;12.95;;;8.10;;
82990;SDS011;72806;50.832;4.864;2024-01-15T02:54:13;14.18;;;8.27;;
82990;SDS011;72806;50.832;4.864;2024-01-15T02:56:40;13.13;;;7.47;;
82990;SDS011;72806;50.832;4.864;2024-01-15T02:59:08;21.33;;;7.35;;
82990;SDS011;72806;50.832;4.864;2024-01-15T03:01:35;11.85;;;7.13;;
82990;SDS011;72806;50.832;4.864;2024-01-15T03:04:02;13.05;;;6.95;;
82990;SDS011;72806;50.832;4.864;2024-01-15T03:06:29;13.88;;;6.80;;
82990;SDS011;72806;50.832;4.864;2024-01-15T03:08:56;10.82;;;5.95;;
82990;SDS011;72806;50.832;4.864;2024-01-15T03:11:23;12.38;;;6.97;;
82990;SDS011;72806;50.832;4.864;2024-01-15T03:13:49;15.25;;;6.72;;
82990;SDS011;72806;50.832;4.864;2024-01-15T03:16:18;17.38;;;8.05;;
82990;SDS011;72806;50.832;4.864;2024-01-15T03:18:46;11.65;;;6.70;;
82990;SDS011;72806;50.832;4.864;2024-01-15T03:21:12;9.93;;;5.82;;
82990;SDS011;72806;50.832;4.864;2024-01-15T03:23:39;12.65;;;6.82;;
82990;SDS011;72806;50.832;4.864;2024-01-15T03:26:06;10.77;;;6.85;;
82990;SDS011;72806;50.832;4.864;2024-01-15T03:28:33;15.48;;;6.65;;
82990;SDS011;72806;50.832;4.864;2024-01-15T03:31:00;14.98;;;7.47;;
82990;SDS011;72806;50.832;4.864;2024-01-15T03:33:28;11.80;;;6.28;;
82990;SDS011;72806;50.832;4.864;2024-01-15T03:35:55;15.00;;;6.65;;
82990;SDS011;72806;50.832;4.864;2024-01-15T03:38:22;15.05;;;6.70;;
82990;SDS011;72806;50.832;4.864;2024-01-15T03:40:49;13.60;;;6.38;;
82990;SDS011;72806;50.832;4.864;2024-01-15T03:43:16;12.85;;;5.78;;
82990;SDS011;72806;50.832;4.864;2024-01-15T03:45:43;13.65;;;6.45;;
82990;SDS011;72806;50.832;4.864;2024-01-15T03:48:10;15.57;;;7.32;;
82990;SDS011;72806;50.832;4.864;2024-01-15T03:50:39;16.17;;;6.75;;
82990;SDS011;72806;50.832;4.864;2024-01-15T03:53:06;12.95;;;6.95;;
82990;SDS011;72806;50.832;4.864;2024-01-15T03:55:33;14.63;;;6.50;;
82990;SDS011;72806;50.832;4.864;2024-01-15T03:58:00;11.20;;;6.40;;
82990;SDS011;72806;50.832;4.864;2024-01-15T04:00:27;14.98;;;7.90;;
82990;SDS011;72806;50.832;4.864;2024-01-15T04:02:54;16.13;;;7.40;;
82990;SDS011;72806;50.832;4.864;2024-01-15T04:05:21;17.15;;;9.00;;
82990;SDS011;72806;50.832;4.864;2024-01-15T04:07:49;15.25;;;8.13;;
82990;SDS011;72806;50.832;4.864;2024-01-15T04:10:16;20.48;;;9.40;;
82990;SDS011;72806;50.832;4.864;2024-01-15T04:12:43;18.83;;;9.88;;
82990;SDS011;72806;50.832;4.864;2024-01-15T04:15:11;22.30;;;10.50;;
82990;SDS011;72806;50.832;4.864;2024-01-15T04:17:38;18.27;;;8.07;;
82990;SDS011;72806;50.832;4.864;2024-01-15T04:20:05;21.75;;;11.07;;
82990;SDS011;72806;50.832;4.864;2024-01-15T04:22:33;22.48;;;10.95;;
82990;SDS011;72806;50.832;4.864;2024-01-15T04:25:01;20.67;;;11.60;;
82990;SDS011;72806;50.832;4.864;2024-01-15T04:27:29;17.23;;;9.18;;
82990;SDS011;72806;50.832;4.864;2024-01-15T04:29:56;22.65;;;11.20;;
82990;SDS011;72806;50.832;4.864;2024-01-15T04:32:23;18.67;;;10.43;;
82990;SDS011;72806;50.832;4.864;2024-01-15T04:34:49;21.25;;;10.70;;
82990;SDS011;72806;50.832;4.864;2024-01-15T04:37:16;27.70;;;14.18;;
82990;SDS011;72806;50.832;4.864;2024-01-15T04:39:43;24.65;;;11.65;;
82990;SDS011;72806;50.832;4.864;2024-01-15T04:42:12;28.67;;;12.50;;
82990;SDS011;72806;50.832;4.864;2024-01-15T04:44:39;24.33;;;12.68;;
82990;SDS011;72806;50.832;4.864;2024-01-15T04:47:05;26.33;;;12.20;;
82990;SDS011;72806;50.832;4.864;2024-01-15T04:49:32;24.83;;;12.75;;
82990;SDS011;72806;50.832;4.864;2024-01-15T04:51:59;23.02;;;11.60;;
82990;SDS011;72806;50.832;4.864;2024-01-15T04:54:27;27.73;;;13.55;;
82990;SDS011;72806;50.832;4.864;2024-01-15T04:56:54;26.38;;;11.75;;
82990;SDS011;72806;50.832;4.864;2024-01-15T04:59:22;32.95;;;12.63;;
82990;SDS011;72806;50.832;4.864;2024-01-15T05:01:49;25.23;;;12.95;;
82990;SDS011;72806;50.832;4.864;2024-01-15T05:04:16;22.98;;;11.68;;
82990;SDS011;72806;50.832;4.864;2024-01-15T05:06:44;20.33;;;9.50;;
82990;SDS011;72806;50.832;4.864;2024-01-15T05:09:10;28.80;;;12.85;;
82990;SDS011;72806;50.832;4.864;2024-01-15T05:11:38;14.35;;;8.73;;
82990;SDS011;72806;50.832;4.864;2024-01-15T05:14:05;24.70;;;11.10;;
82990;SDS011;72806;50.832;4.864;2024-01-15T05:16:34;25.40;;;12.45;;
82990;SDS011;72806;50.832;4.864;2024-01-15T05:19:01;17.10;;;9.70;;
82990;SDS011;72806;50.832;4.864;2024-01-15T05:21:28;24.70;;;10.88;;
82990;SDS011;72806;50.832;4.864;2024-01-15T05:23:55;21.88;;;10.48;;
82990;SDS011;72806;50.832;4.864;2024-01-15T05:26:21;17.63;;;7.53;;
82990;SDS011;72806;50.832;4.864;2024-01-15T05:28:48;22.45;;;10.35;;
82990;SDS011;72806;50.832;4.864;2024-01-15T05:31:15;19.08;;;9.48;;
82990;SDS011;72806;50.832;4.864;2024-01-15T05:33:43;20.42;;;10.02;;
82990;SDS011;72806;50.832;4.864;2024-01-15T05:36:10;24.25;;;11.32;;
82990;SDS011;72806;50.832;4.864;2024-01-15T05:38:38;20.90;;;10.57;;
82990;SDS011;72806;50.832;4.864;2024-01-15T05:41:05;20.00;;;8.85;;
82990;SDS011;72806;50.832;4.864;2024-01-15T05:43:32;17.77;;;9.40;;
82990;SDS011;72806;50.832;4.864;2024-01-15T05:45:59;20.80;;;9.20;;
82990;SDS011;72806;50.832;4.864;2024-01-15T05:48:26;18.33;;;9.13;;
82990;SDS011;72806;50.832;4.864;2024-01-15T05:50:54;19.85;;;9.77;;
82990;SDS011;72806;50.832;4.864;2024-01-15T05:53:21;19.88;;;9.07;;
82990;SDS011;72806;50.832;4.864;2024-01-15T05:55:49;17.40;;;7.45;;
82990;SDS011;72806;50.832;4.864;2024-01-15T05:58:15;18.92;;;8.48;;
82990;SDS011;72806;50.832;4.864;2024-01-15T06:00:42;18.05;;;8.68;;
82990;SDS011;72806;50.832;4.864;2024-01-15T06:03:10;18.48;;;9.77;;
82990;SDS011;72806;50.832;4.864;2024-01-15T06:05:37;18.75;;;9.38;;
82990;SDS011;72806;50.832;4.864;2024-01-15T06:08:06;20.80;;;8.63;;
82990;SDS011;72806;50.832;4.864;2024-01-15T06:10:33;17.35;;;8.75;;
82990;SDS011;72806;50.832;4.864;2024-01-15T06:13:01;19.10;;;7.82;;
82990;SDS011;72806;50.832;4.864;2024-01-15T06:15:28;16.20;;;7.28;;
82990;SDS011;72806;50.832;4.864;2024-01-15T06:17:55;13.02;;;6.78;;
82990;SDS011;72806;50.832;4.864;2024-01-15T06:20:21;12.80;;;5.85;;
82990;SDS011;72806;50.832;4.864;2024-01-15T06:22:48;15.30;;;6.55;;
82990;SDS011;72806;50.832;4.864;2024-01-15T06:25:17;12.52;;;5.63;;
82990;SDS011;72806;50.832;4.864;2024-01-15T06:27:44;8.43;;;4.88;;
82990;SDS011;72806;50.832;4.864;2024-01-15T06:30:11;10.07;;;4.82;;
82990;SDS011;72806;50.832;4.864;2024-01-15T06:32:39;9.60;;;4.55;;
82990;SDS011;72806;50.832;4.864;2024-01-15T06:35:06;9.20;;;5.18;;
82990;SDS011;72806;50.832;4.864;2024-01-15T06:37:35;10.05;;;4.60;;
82990;SDS011;72806;50.832;4.864;2024-01-15T06:40:03;7.22;;;4.30;;
82990;SDS011;72806;50.832;4.864;2024-01-15T06:42:32;8.77;;;4.88;;
82990;SDS011;72806;50.832;4.864;2024-01-15T06:44:59;8.90;;;4.78;;
82990;SDS011;72806;50.832;4.864;2024-01-15T06:47:26;8.95;;;4.20;;
82990;SDS011;72806;50.832;4.864;2024-01-15T06:49:53;10.07;;;4.80;;
82990;SDS011;72806;50.832;4.864;2024-01-15T06:52:20;9.68;;;4.15;;
82990;SDS011;72806;50.832;4.864;2024-01-15T06:54:47;6.88;;;4.20;;
82990;SDS011;72806;50.832;4.864;2024-01-15T06:57:14;6.82;;;3.88;;
82990;SDS011;72806;50.832;4.864;2024-01-15T06:59:42;7.47;;;4.57;;
82990;SDS011;72806;50.832;4.864;2024-01-15T07:02:09;9.02;;;4.35;;
82990;SDS011;72806;50.832;4.864;2024-01-15T07:04:36;8.80;;;4.22;;
82990;SDS011;72806;50.832;4.864;2024-01-15T07:07:03;5.63;;;2.90;;
82990;SDS011;72806;50.832;4.864;2024-01-15T07:09:30;6.65;;;3.38;;
82990;SDS011;72806;50.832;4.864;2024-01-15T07:11:57;5.40;;;2.88;;
82990;SDS011;72806;50.832;4.864;2024-01-15T07:14:24;9.68;;;3.55;;
82990;SDS011;72806;50.832;4.864;2024-01-15T07:16:53;5.25;;;2.65;;
82990;SDS011;72806;50.832;4.864;2024-01-15T07:19:20;3.75;;;2.28;;
82990;SDS011;72806;50.832;4.864;2024-01-15T07:21:47;2.72;;;2.22;;
82990;SDS011;72806;50.832;4.864;2024-01-15T07:24:14;4.28;;;2.50;;
82990;SDS011;72806;50.832;4.864;2024-01-15T07:26:40;5.10;;;2.75;;
82990;SDS011;72806;50.832;4.864;2024-01-15T07:29:07;3.35;;;2.25;;
82990;SDS011;72806;50.832;4.864;2024-01-15T07:31:34;3.90;;;2.47;;
82990;SDS011;72806;50.832;4.864;2024-01-15T07:34:03;6.57;;;2.65;;
82990;SDS011;72806;50.832;4.864;2024-01-15T07:36:29;4.88;;;2.83;;
82990;SDS011;72806;50.832;4.864;2024-01-15T07:38:56;5.30;;;3.00;;
82990;SDS011;72806;50.832;4.864;2024-01-15T07:41:23;9.57;;;2.97;;
82990;SDS011;72806;50.832;4.864;2024-01-15T07:43:50;6.18;;;2.50;;
82990;SDS011;72806;50.832;4.864;2024-01-15T07:46:17;6.20;;;3.17;;
82990;SDS011;72806;50.832;4.864;2024-01-15T07:48:44;10.88;;;3.33;;
82990;SDS011;72806;50.832;4.864;2024-01-15T07:51:12;4.70;;;3.45;;
82990;SDS011;72806;50.832;4.864;2024-01-15T07:53:40;4.22;;;2.88;;
82990;SDS011;72806;50.832;4.864;2024-01-15T07:56:07;7.75;;;3.28;;
82990;SDS011;72806;50.832;4.864;2024-01-15T07:58:34;4.78;;;3.28;;
82990;SDS011;72806;50.832;4.864;2024-01-15T08:01:01;5.68;;;3.03;;
82990;SDS011;72806;50.832;4.864;2024-01-15T08:03:28;5.45;;;2.92;;
82990;SDS011;72806;50.832;4.864;2024-01-15T08:05:55;3.05;;;2.67;;
82990;SDS011;72806;50.832;4.864;2024-01-15T08:08:25;6.85;;;3.58;;
82990;SDS011;72806;50.832;4.864;2024-01-15T08:10:52;5.85;;;2.88;;
82990;SDS011;72806;50.832;4.864;2024-01-15T08:13:19;10.02;;;3.85;;
82990;SDS011;72806;50.832;4.864;2024-01-15T08:15:46;7.88;;;3.25;;
82990;SDS011;72806;50.832;4.864;2024-01-15T08:18:13;7.22;;;3.33;;
82990;SDS011;72806;50.832;4.864;2024-01-15T08:20:40;7.57;;;4.05;;
82990;SDS011;72806;50.832;4.864;2024-01-15T08:23:07;4.22;;;3.22;;
82990;SDS011;72806;50.832;4.864;2024-01-15T08:25:36;6.70;;;3.00;;
82990;SDS011;72806;50.832;4.864;2024-01-15T08:28:03;12.02;;;3.95;;
82990;SDS011;72806;50.832;4.864;2024-01-15T08:30:30;6.82;;;4.53;;
82990;SDS011;72806;50.832;4.864;2024-01-15T08:32:57;8.60;;;4.70;;
82990;SDS011;72806;50.832;4.864;2024-01-15T08:35:24;9.55;;;4.88;;
82990;SDS011;72806;50.832;4.864;2024-01-15T08:37:52;8.48;;;4.90;;
82990;SDS011;72806;50.832;4.864;2024-01-15T08:40:19;9.52;;;5.70;;
82990;SDS011;72806;50.832;4.864;2024-01-15T08:42:47;6.60;;;4.40;;
82990;SDS011;72806;50.832;4.864;2024-01-15T08:45:14;7.43;;;5.10;;
82990;SDS011;72806;50.832;4.864;2024-01-15T08:47:41;6.10;;;4.30;;
82990;SDS011;72806;50.832;4.864;2024-01-15T08:50:08;7.75;;;4.38;;
82990;SDS011;72806;50.832;4.864;2024-01-15T08:52:35;12.50;;;4.93;;
82990;SDS011;72806;50.832;4.864;2024-01-15T08:55:03;9.73;;;4.60;;
82990;SDS011;72806;50.832;4.864;2024-01-15T08:57:32;6.55;;;4.40;;
82990;SDS011;72806;50.832;4.864;2024-01-15T09:00:00;8.80;;;4.45;;
82990;SDS011;72806;50.832;4.864;2024-01-15T09:02:28;5.30;;;3.13;;
82990;SDS011;72806;50.832;4.864;2024-01-15T09:04:55;6.60;;;4.10;;
82990;SDS011;72806;50.832;4.864;2024-01-15T09:07:22;4.22;;;2.83;;
82990;SDS011;72806;50.832;4.864;2024-01-15T09:09:51;4.13;;;3.08;;
82990;SDS011;72806;50.832;4.864;2024-01-15T09:12:18;6.55;;;3.15;;
82990;SDS011;72806;50.832;4.864;2024-01-15T09:14:47;10.65;;;3.65;;
82990;SDS011;72806;50.832;4.864;2024-01-15T09:17:17;3.90;;;2.55;;
82990;SDS011;72806;50.832;4.864;2024-01-15T09:19:44;7.10;;;2.90;;
82990;SDS011;72806;50.832;4.864;2024-01-15T09:22:12;3.10;;;2.10;;
82990;SDS011;72806;50.832;4.864;2024-01-15T09:24:40;8.32;;;3.15;;
82990;SDS011;72806;50.832;4.864;2024-01-15T09:27:07;4.38;;;2.28;;
82990;SDS011;72806;50.832;4.864;2024-01-15T09:29:34;9.93;;;2.97;;
82990;SDS011;72806;50.832;4.864;2024-01-15T09:32:02;4.35;;;2.53;;
82990;SDS011;72806;50.832;4.864;2024-01-15T09:34:31;3.50;;;2.00;;
82990;SDS011;72806;50.832;4.864;2024-01-15T09:36:58;4.47;;;2.17;;
82990;SDS011;72806;50.832;4.864;2024-01-15T09:39:26;5.72;;;2.35;;
82990;SDS011;72806;50.832;4.864;2024-01-15T09:41:53;4.63;;;2.17;;
82990;SDS011;72806;50.832;4.864;2024-01-15T09:44:20;1.95;;;1.00;;
82990;SDS011;72806;50.832;4.864;2024-01-15T09:46:47;2.08;;;1.25;;
82990;SDS011;72806;50.832;4.864;2024-01-15T09:49:15;9.52;;;2.03;;
82990;SDS011;72806;50.832;4.864;2024-01-15T09:51:44;3.60;;;1.60;;
82990;SDS011;72806;50.832;4.864;2024-01-15T09:54:12;2.70;;;2.00;;
82990;SDS011;72806;50.832;4.864;2024-01-15T09:56:42;3.33;;;1.40;;
82990;SDS011;72806;50.832;4.864;2024-01-15T09:59:12;6.15;;;1.88;;
82990;SDS011;72806;50.832;4.864;2024-01-15T10:01:41;3.80;;;1.60;;
82990;SDS011;72806;50.832;4.864;2024-01-15T10:04:10;1.38;;;0.88;;
82990;SDS011;72806;50.832;4.864;2024-01-15T10:06:37;2.38;;;1.23;;
82990;SDS011;72806;50.832;4.864;2024-01-15T10:09:07;6.20;;;1.80;;
82990;SDS011;72806;50.832;4.864;2024-01-15T10:11:34;1.73;;;1.20;;
82990;SDS011;72806;50.832;4.864;2024-01-15T10:14:02;6.35;;;1.45;;
82990;SDS011;72806;50.832;4.864;2024-01-15T10:16:30;2.38;;;1.13;;
82990;SDS011;72806;50.832;4.864;2024-01-15T10:18:57;6.00;;;1.70;;
82990;SDS011;72806;50.832;4.864;2024-01-15T10:21:24;3.25;;;1.50;;
82990;SDS011;72806;50.832;4.864;2024-01-15T10:23:52;5.70;;;1.55;;
82990;SDS011;72806;50.832;4.864;2024-01-15T10:26:25;1.95;;;1.00;;
82990;SDS011;72806;50.832;4.864;2024-01-15T10:28:52;5.05;;;1.42;;
82990;SDS011;72806;50.832;4.864;2024-01-15T10:31:19;1.15;;;1.05;;
82990;SDS011;72806;50.832;4.864;2024-01-15T10:33:47;3.05;;;1.40;;
82990;SDS011;72806;50.832;4.864;2024-01-15T10:36:15;3.25;;;1.48;;
82990;SDS011;72806;50.832;4.864;2024-01-15T10:38:42;4.63;;;1.52;;
82990;SDS011;72806;50.832;4.864;2024-01-15T10:41:10;2.08;;;0.88;;
82990;SDS011;72806;50.832;4.864;2024-01-15T10:43:39;2.05;;;1.50;;
82990;SDS011;72806;50.832;4.864;2024-01-15T10:46:06;3.33;;;1.10;;
82990;SDS011;72806;50.832;4.864;2024-01-15T10:48:33;3.67;;;1.10;;
82990;SDS011;72806;50.832;4.864;2024-01-15T10:51:01;1.25;;;0.85;;
82990;SDS011;72806;50.832;4.864;2024-01-15T10:53:35;0.40;;;0.40;;
82990;SDS011;72806;50.832;4.864;2024-01-15T10:56:05;4.88;;;1.00;;
82990;SDS011;72806;50.832;4.864;2024-01-15T10:58:33;3.28;;;1.20;;
82990;SDS011;72806;50.832;4.864;2024-01-15T11:01:02;6.55;;;1.52;;
82990;SDS011;72806;50.832;4.864;2024-01-15T11:03:30;4.75;;;1.45;;
82990;SDS011;72806;50.832;4.864;2024-01-15T11:05:57;3.03;;;1.10;;
82990;SDS011;72806;50.832;4.864;2024-01-15T11:08:24;4.43;;;1.30;;
82990;SDS011;72806;50.832;4.864;2024-01-15T11:10:51;4.05;;;2.22;;
82990;SDS011;72806;50.832;4.864;2024-01-15T11:13:20;1.85;;;0.80;;
82990;SDS011;72806;50.832;4.864;2024-01-15T11:15:54;2.53;;;1.30;;
82990;SDS011;72806;50.832;4.864;2024-01-15T11:18:25;1.17;;;0.90;;
82990;SDS011;72806;50.832;4.864;2024-01-15T11:23:48;2.38;;;1.02;;
82990;SDS011;72806;50.832;4.864;2024-01-15T11:29:28;1.95;;;0.70;;
82990;SDS011;72806;50.832;4.864;2024-01-15T11:31:56;2.50;;;0.95;;
82990;SDS011;72806;50.832;4.864;2024-01-15T11:37:27;7.60;;;1.50;;
82990;SDS011;72806;50.832;4.864;2024-01-15T11:39:56;1.88;;;0.95;;
82990;SDS011;72806;50.832;4.864;2024-01-15T11:42:28;4.32;;;1.05;;
82990;SDS011;72806;50.832;4.864;2024-01-15T11:44:56;3.20;;;1.38;;
82990;SDS011;72806;50.832;4.864;2024-01-15T11:47:33;2.58;;;1.33;;
82990;SDS011;72806;50.832;4.864;2024-01-15T11:50:26;1.77;;;0.90;;
82990;SDS011;72806;50.832;4.864;2024-01-15T11:52:56;10.15;;;2.15;;
82990;SDS011;72806;50.832;4.864;2024-01-15T11:55:30;10.80;;;1.95;;
82990;SDS011;72806;50.832;4.864;2024-01-15T11:58:00;2.58;;;0.85;;
82990;SDS011;72806;50.832;4.864;2024-01-15T12:00:28;3.78;;;1.00;;
82990;SDS011;72806;50.832;4.864;2024-01-15T12:02:55;3.95;;;1.23;;
82990;SDS011;72806;50.832;4.864;2024-01-15T12:05:28;3.42;;;1.38;;
82990;SDS011;72806;50.832;4.864;2024-01-15T12:07:55;3.30;;;1.10;;
82990;SDS011;72806;50.832;4.864;2024-01-15T12:10:22;2.42;;;1.27;;
82990;SDS011;72806;50.832;4.864;2024-01-15T12:12:53;2.90;;;1.08;;
82990;SDS011;72806;50.832;4.864;2024-01-15T12:15:24;0.65;;;0.63;;
82990;SDS011;72806;50.832;4.864;2024-01-15T12:17:51;4.22;;;0.90;;
82990;SDS011;72806;50.832;4.864;2024-01-15T12:20:18;0.60;;;0.52;;
82990;SDS011;72806;50.832;4.864;2024-01-15T12:22:47;3.92;;;1.00;;
82990;SDS011;72806;50.832;4.864;2024-01-15T12:25:13;0.80;;;0.80;;
82990;SDS011;72806;50.832;4.864;2024-01-15T12:27:40;4.38;;;0.73;;
82990;SDS011;72806;50.832;4.864;2024-01-15T12:30:10;1.30;;;0.60;;
82990;SDS011;72806;50.832;4.864;2024-01-15T12:32:38;2.33;;;1.13;;
82990;SDS011;72806;50.832;4.864;2024-01-15T12:35:06;2.92;;;1.20;;
82990;SDS011;72806;50.832;4.864;2024-01-15T12:37:35;3.30;;;0.95;;
82990;SDS011;72806;50.832;4.864;2024-01-15T12:40:04;1.55;;;0.80;;
82990;SDS011;72806;50.832;4.864;2024-01-15T12:42:32;3.42;;;0.93;;
82990;SDS011;72806;50.832;4.864;2024-01-15T12:44:59;1.00;;;0.40;;
82990;SDS011;72806;50.832;4.864;2024-01-15T12:47:28;3.45;;;0.80;;
82990;SDS011;72806;50.832;4.864;2024-01-15T12:49:55;3.88;;;1.00;;
82990;SDS011;72806;50.832;4.864;2024-01-15T12:52:26;3.40;;;0.75;;
82990;SDS011;72806;50.832;4.864;2024-01-15T12:54:53;2.33;;;0.77;;
82990;SDS011;72806;50.832;4.864;2024-01-15T12:57:21;1.85;;;0.82;;
82990;SDS011;72806;50.832;4.864;2024-01-15T12:59:48;3.47;;;0.60;;
82990;SDS011;72806;50.832;4.864;2024-01-15T13:02:16;2.70;;;0.82;;
82990;SDS011;72806;50.832;4.864;2024-01-15T13:04:43;1.83;;;1.20;;
82990;SDS011;72806;50.832;4.864;2024-01-15T13:07:10;3.03;;;1.10;;
82990;SDS011;72806;50.832;4.864;2024-01-15T13:09:37;2.47;;;1.00;;
82990;SDS011;72806;50.832;4.864;2024-01-15T13:12:04;1.42;;;1.15;;
82990;SDS011;72806;50.832;4.864;2024-01-15T13:14:33;1.60;;;0.80;;
82990;SDS011;72806;50.832;4.864;2024-01-15T13:17:01;3.58;;;1.17;;
82990;SDS011;72806;50.832;4.864;2024-01-15T13:19:28;3.83;;;0.90;;
82990;SDS011;72806;50.832;4.864;2024-01-15T13:21:55;3.17;;;1.23;;
82990;SDS011;72806;50.832;4.864;2024-01-15T13:24:25;1.73;;;0.73;;
82990;SDS011;72806;50.832;4.864;2024-01-15T13:26:52;1.65;;;0.98;;
82990;SDS011;72806;50.832;4.864;2024-01-15T13:29:19;4.22;;;1.50;;
82990;SDS011;72806;50.832;4.864;2024-01-15T13:31:47;3.53;;;1.60;;
82990;SDS011;72806;50.832;4.864;2024-01-15T13:34:15;4.22;;;1.30;;
82990;SDS011;72806;50.832;4.864;2024-01-15T13:36:42;2.85;;;0.95;;
82990;SDS011;72806;50.832;4.864;2024-01-15T13:39:09;2.95;;;0.98;;
82990;SDS011;72806;50.832;4.864;2024-01-15T13:41:36;0.90;;;0.57;;
82990;SDS011;72806;50.832;4.864;2024-01-15T13:44:03;1.05;;;0.70;;
82990;SDS011;72806;50.832;4.864;2024-01-15T13:46:30;1.08;;;0.98;;
82990;SDS011;72806;50.832;4.864;2024-01-15T13:49:00;1.83;;;1.05;;
82990;SDS011;72806;50.832;4.864;2024-01-15T13:51:27;3.42;;;1.00;;
82990;SDS011;72806;50.832;4.864;2024-01-15T13:53:55;1.42;;;0.98;;
82990;SDS011;72806;50.832;4.864;2024-01-15T13:56:22;1.15;;;0.68;;
82990;SDS011;72806;50.832;4.864;2024-01-15T13:58:49;0.95;;;0.85;;
82990;SDS011;72806;50.832;4.864;2024-01-15T14:01:17;4.47;;;1.40;;
82990;SDS011;72806;50.832;4.864;2024-01-15T14:03:44;0.60;;;0.60;;
82990;SDS011;72806;50.832;4.864;2024-01-15T14:06:12;0.85;;;0.85;;
82990;SDS011;72806;50.832;4.864;2024-01-15T14:08:39;2.28;;;1.00;;
82990;SDS011;72806;50.832;4.864;2024-01-15T14:11:06;1.77;;;1.17;;
82990;SDS011;72806;50.832;4.864;2024-01-15T14:13:33;2.20;;;1.23;;
82990;SDS011;72806;50.832;4.864;2024-01-15T14:16:00;0.95;;;0.80;;
82990;SDS011;72806;50.832;4.864;2024-01-15T14:18:27;0.98;;;0.60;;
82990;SDS011;72806;50.832;4.864;2024-01-15T14:20:54;1.10;;;0.80;;
82990;SDS011;72806;50.832;4.864;2024-01-15T14:23:22;2.05;;;0.70;;
82990;SDS011;72806;50.832;4.864;2024-01-15T14:25:49;1.08;;;0.90;;
82990;SDS011;72806;50.832;4.864;2024-01-15T14:28:16;1.42;;;0.80;;
82990;SDS011;72806;50.832;4.864;2024-01-15T14:30:43;2.50;;;1.02;;
82990;SDS011;72806;50.832;4.864;2024-01-15T14:33:10;0.80;;;0.80;;
82990;SDS011;72806;50.832;4.864;2024-01-15T14:35:37;2.10;;;0.90;;
82990;SDS011;72806;50.832;4.864;2024-01-15T14:38:04;0.40;;;0.40;;
82990;SDS011;72806;50.832;4.864;2024-01-15T14:40:34;1.23;;;0.50;;
82990;SDS011;72806;50.832;4.864;2024-01-15T14:43:02;1.35;;;0.77;;
82990;SDS011;72806;50.832;4.864;2024-01-15T14:45:29;1.10;;;0.55;;
82990;SDS011;72806;50.832;4.864;2024-01-15T14:47:56;3.50;;;0.80;;
82990;SDS011;72806;50.832;4.864;2024-01-15T14:50:23;1.05;;;0.80;;